Tiempo atmosférico en la estación meteorológica de El Maíllo, Salamanca (1027 m.)



Fecha
DESCASC
Temp. máxima en grados centígrados (hora)
DESCASC
Temp. mínima en grados centígrados (hora)
DESCASC
Temp. media en grados centígrados
DESCASC
Racha de viento máxima en m/sg (hora)
DESCASC
Velocidad máxima media en intervalos de 10 minutos(hora)
DESCASC
Precipitaciones diarias en mm
DESCASC
Precipitaciones de 00:00 a 06:00 en mm
DESCASC
Precipitaciones de 06:00 a 12:00 en mm
DESCASC
Precipitaciones de 12:00 a 18:00 en mm
DESCASC
Precipitaciones de 18:00 a 24:00 en mm
DESCASC
13-10-2019 18.2 (00:00) 11.9 (08:20) 15.1 20 (21:20) 12.5 (05:20) 0 0 0 0 0
12-10-2019 23.6 (17:10) 17.6 (08:30) 20.6 20 (14:40) 11.67 (15:10) 0 0 0 0 0
10-10-2019 25.2 (17:30) 10.1 (00:00) 17.7 7.22 (07:30) 5 (07:30) 0 0 0 0 0
09-10-2019 22.1 (16:30) 11.2 (00:00) 16.7 6.94 (11:40) 5 (11:40) 0 0 0 0 0
08-10-2019 26.4 (16:10) 12.8 (00:00) 19.6 8.61 (15:30) 5 (15:20) 0 0 0 0 0
07-10-2019 26.7 (16:30) 10.1 (00:00) 18.4 6.11 (23:40) 4.72 (21:00) 0 0 0 0 0
06-10-2019 23.6 (17:00) 7.8 (00:00) 15.7 6.11 (00:20) 4.72 (00:30) 0 0 0 0 0
05-10-2019 22.1 (17:10) 7.8 (07:50) 15 7.5 (16:10) 5 (16:20) 0 0 0 0 0
04-10-2019 23.1 (17:50) 10.8 (00:00) 17 9.72 (15:30) 4.44 (22:30) 0 0 0 0 0
03-10-2019 22.9 (17:40) 8 (00:00) 15.4 6.39 (15:20) 4.17 (21:10) 0 0 0 0 0
02-10-2019 19.1 (18:00) 7.2 (00:00) 13.2 6.11 (17:20) 3.61 (03:00) 0 0 0 0 0
01-10-2019 20.1 (17:50) 11.2 (00:00) 15.7 8.89 (17:30) 5.28 (17:30) 0 0 0 0 0
30-09-2019 26.2 (16:10) 10.6 (00:00) 18.4 7.5 (15:40) 4.72 (09:20) 0 0 0 0 0
29-09-2019 25.5 (18:10) 9.7 (00:00) 17.6 7.78 (15:10) 5.28 (01:20) 0 0 0 0 0
28-09-2019 26.1 (18:10) 7.8 (00:00) 17 5.83 (08:30) 5 (08:30) 0 0 0 0 0
27-09-2019 22.4 (17:10) 8.5 (00:00) 15.4 7.22 (15:30) 5.28 (07:20) 0 0 0 0 0
26-09-2019 23.7 (15:30) 7.7 (00:00) 15.7 9.72 (16:20) 5.56 (15:50) 0 0 0 0 0
25-09-2019 19.1 (17:40) 8.1 (00:00) 13.6 5.56 (11:20) 3.89 (20:50) 0 0 0 0 0
24-09-2019 19.8 (13:10) 10.6 (00:00) 15.2 10 (19:50) 5.83 (11:30) 3.8 0 0 3.8 0
23-09-2019 22.1 (17:10) 6.7 (00:00) 14.4 7.22 (17:20) 4.44 (17:20) 0 0 0 0 0
22-09-2019 16.5 (15:50) 8.1 (00:00) 12.3 10.56 (01:00) 7.22 (01:00) 3.4 3.4 0 0 0
21-09-2019 17.3 (16:10) 13 (00:00) 15.1 19.72 (19:40) 12.22 (19:40) 5.4 0 1.8 0 3.6
20-09-2019 22.6 (16:10) 15.4 (00:00) 19 13.89 (16:50) 7.5 (17:50) 0 0 0 0 0
19-09-2019 24.7 (17:00) 13.4 (00:00) 19.1 6.11 (14:10) 4.72 (22:50) 0 0 0 0 0
18-09-2019 24.3 (17:50) 11.7 (00:00) 18 5.83 (08:20) 5 (07:50) 0 0 0 0 0
17-09-2019 24.7 (14:30) 12.7 (00:00) 18.7 12.22 (16:20) 8.06 (21:00) 28.8 0 0 24 4.8
16-09-2019 20.5 (14:30) 12.4 (00:00) 16.4 5.83 (01:10) 5 (01:00) 0.2 0 0 0.2 0

Gráficas

Temp. máximas Temp. mínimas Temp. medias Precipitaciones Rachas de viento máximas Velocidades máximas media en intervalos de 10 minutos

Datos horarios

Fecha y hora oficial Temperatura (ºC) Velocidad del viento (km/h) Dirección del viento Racha (km/h) Dirección de racha Precipitación (mm) Presión (hPa) Tendencia (hPa) Humedad (%)
2019-10-15 23:00:00 9.2 12 Sudoeste 22 Sur 0 -- -- 75
2019-10-15 22:00:00 9.7 14 Sudoeste 19 Sudoeste 0 -- -- 76
2019-10-15 21:00:00 9.3 11 Sur 21 Sur 0 -- -- 75
2019-10-15 20:00:00 10.1 8 Sudoeste 16 Sudoeste 0 -- -- 74
2019-10-15 19:00:00 10.9 6 Sur 15 Sudoeste 0 -- -- 71
2019-10-15 18:00:00 11.4 12 Sudoeste 22 Sur 0 -- -- 62
2019-10-15 17:00:00 11.7 10 Oeste 22 Sudoeste 0 -- -- 61
2019-10-15 16:00:00 12 15 Sudoeste 28 Sudoeste 0 -- -- 60
2019-10-15 15:00:00 12 8 Sudoeste 20 Oeste 0 -- -- 64
2019-10-15 14:00:00 10.2 7 Oeste 19 Oeste 0 -- -- 69
2019-10-15 13:00:00 9.9 9 Oeste 23 Oeste 0 -- -- 70
2019-10-15 12:00:00 9.2 10 Oeste 19 Oeste 0 -- -- 76
2019-10-15 11:00:00 7.9 10 Oeste 15 Sudoeste 0 -- -- 84
2019-10-15 10:00:00 6.4 7 Sudoeste 14 Sur 0 -- -- 96
2019-10-15 09:00:00 3.5 6 Sudoeste 14 Sur 0 -- -- 96
2019-10-15 08:00:00 4.1 9 Sudoeste 15 Sudoeste 0 -- -- 96
2019-10-15 07:00:00 4.7 10 Sudoeste 15 Sudoeste 0 -- -- 96
2019-10-15 06:00:00 4.8 6 Sudoeste 18 Sudoeste 0 -- -- 97
2019-10-15 05:00:00 4.2 8 Sudoeste 14 Sudoeste 0 -- -- 96
2019-10-15 04:00:00 3.9 8 Sudoeste 15 Sudoeste 0 -- -- 95
2019-10-15 03:00:00 4.2 11 Sudoeste 18 Sur 0 -- -- 94
2019-10-15 02:00:00 4.1 11 Sudoeste 19 Sudoeste 0 -- -- 93
2019-10-15 01:00:00 4.4 9 Sur 24 Sudoeste 0 -- -- 91
2019-10-15 00:00:00 4.6 15 Sudoeste 23 Sudoeste 0 -- -- 90
2019-10-14 23:00:00 5.2 14 Sudoeste 22 Sudoeste 0 -- -- 89
2019-10-14 22:00:00 5.6 12 Sudoeste 18 Sudoeste 0 -- -- 90
2019-10-14 21:00:00 6.1 13 Sudoeste 27 Sudoeste 0 -- -- 89
2019-10-14 20:00:00 7.4 23 Oeste 38 Oeste 0 -- -- 84
2019-10-14 19:00:00 8.3 22 Oeste 38 Oeste 0 -- -- 83
2019-10-14 18:00:00 8.9 20 Sudoeste 43 Oeste 0 -- -- 84
2019-10-14 17:00:00 8.3 24 Sudoeste 46 Oeste 1.6 -- -- 90
2019-10-14 16:00:00 8.8 24 Sudoeste 37 Sur 0.4 -- -- 93
2019-10-14 15:00:00 8.3 21 Sudoeste 47 Sudoeste 4.4 -- -- 92
2019-10-14 14:00:00 9.1 10 Sudoeste 51 Sudoeste 3.6 -- -- 93
2019-10-14 13:00:00 10.2 27 Sudoeste 48 Sur 0 -- -- 85
2019-10-14 12:00:00 11.3 24 Sudoeste 41 Sur 0 -- -- 77
2019-10-14 11:00:00 10.1 21 Sudoeste 42 Sudoeste 0 -- -- 82
2019-10-14 10:00:00 9.2 22 Sudoeste 41 Sudoeste 0 -- -- 89
2019-10-14 09:00:00 8.2 12 Sudoeste 31 Sudoeste 1.6 -- -- 96
2019-10-14 08:00:00 8.4 14 Sudoeste 85 Sur 6.8 -- -- 93
2019-10-14 07:00:00 12.8 37 Sur 70 Sur 0.4 -- -- 81
2019-10-14 06:00:00 13.6 30 Sur 54 Sur 0 -- -- 72
2019-10-14 05:00:00 14 18 Sur 57 Sudoeste 0 -- -- 77
2019-10-14 04:00:00 14.7 28 Sur 48 Sur 0 -- -- 72
2019-10-14 03:00:00 15.8 27 Sur 60 Sudoeste 0 -- -- 63
2019-10-14 02:00:00 16 30 Sur 52 Sudeste 0 -- -- 64
2019-10-14 01:00:00 16.1 24 Sur 51 Sudeste 0 -- -- 63
2019-10-14 00:00:00 16.1 28 Sur 54 Sur 0 -- -- 62
2019-10-13 23:00:00 16.3 33 Sur 59 Sur 0 -- -- 60
2019-10-13 22:00:00 16.7 37 Sur 72 Sur 0 -- -- 57
2019-10-13 21:00:00 16.6 36 Sur 60 Sur 0 -- -- 56
2019-10-13 20:00:00 16.2 32 Sur 56 Sur 0 -- -- 61
2019-10-13 19:00:00 16.8 31 Sur 52 Sudeste 0 -- -- 61
2019-10-13 18:00:00 17.8 15 Sur 44 Sur 0 -- -- 57
2019-10-13 17:00:00 17.5 21 Sur 45 Sur 0 -- -- 57
2019-10-13 16:00:00 17.7 18 Sur 40 Sur 0 -- -- 57
2019-10-13 15:00:00 16.9 27 Sur 51 Sur 0 -- -- 61
2019-10-13 14:00:00 16.8 27 Sur 53 Sudeste 0 -- -- 62
2019-10-13 13:00:00 16.9 25 Sur 44 Sur 0 -- -- 59
2019-10-13 12:00:00 15.2 15 Sudeste 47 Sur 0 -- -- 65
2019-10-13 11:00:00 13.7 21 Sudoeste 40 Sudoeste 0 -- -- 75
2019-10-13 10:00:00 12.8 18 Sur 40 Sur 0 -- -- 76
2019-10-13 09:00:00 12 9 Noroeste 40 Sudoeste 0 -- -- 74
2019-10-13 08:00:00 12.1 21 Sudoeste 48 Sur 0 -- -- 74
2019-10-13 07:00:00 12.7 36 Sur 60 Sur 0 -- -- 74
2019-10-13 06:00:00 12.9 36 Sur 69 Sur 0 -- -- 74
2019-10-13 05:00:00 13.8 39 Sur 64 Sur 0 -- -- 74
2019-10-13 04:00:00 14 36 Sur 59 Sur 0 -- -- 76
2019-10-13 03:00:00 14.9 39 Sur 63 Sur 0 -- -- 73
2019-10-13 02:00:00 16.2 39 Sur 62 Sur 0 -- -- 66
2019-10-13 01:00:00 17.6 33 Sur 61 Sudoeste 0 -- -- 58
2019-10-13 00:00:00 18.2 37 Sur 70 Sur 0 -- -- 63
2019-10-12 23:00:00 19.6 35 Sur 62 Sur 0 -- -- 51
2019-10-12 22:00:00 20 35 Sur 63 Sur 0 -- -- 48
2019-10-12 21:00:00 20.5 37 Sur 66 Sudoeste 0 -- -- 45
2019-10-12 20:00:00 21.1 24 Sur 60 Sudoeste 0 -- -- 45
2019-10-12 19:00:00 22.6 37 Sudoeste 59 Sur 0 -- -- 38
2019-10-12 18:00:00 22.4 26 Sur 57 Sur 0 -- -- 38
2019-10-12 17:00:00 23.5 30 Sur 57 Sur 0 -- -- 39
2019-10-12 16:00:00 23.1 36 Sur 67 Sur 0 -- -- 42
2019-10-12 15:00:00 22.9 35 Sur 72 Sur 0 -- -- 41
2019-10-12 14:00:00 22.2 33 Sur 57 Sur 0 -- -- 45
2019-10-12 13:00:00 21.8 27 Sur 50 Sur 0 -- -- 47
2019-10-12 12:00:00 20.9 24 Sudeste 54 Sur 0 -- -- 48
2019-10-12 11:00:00 20.4 27 Sur 54 Sudeste 0 -- -- 48
2019-10-12 10:00:00 18.5 18 Sur 52 Sur 0 -- -- 54
2019-10-12 09:00:00 17.9 32 Sur 50 Sudeste 0 -- -- 56
2019-10-12 08:00:00 18.2 28 Sur 47 Sur 0 -- -- 54
2019-10-12 07:00:00 18.7 32 Sur 55 Sur 0 -- -- 53
2019-10-12 06:00:00 18.7 35 Sur 53 Sur 0 -- -- 52
2019-10-12 05:00:00 18.3 30 Sur 50 Sur 0 -- -- 57
2019-10-12 04:00:00 18.5 30 Sur 47 Sur 0 -- -- 56
2019-10-12 03:00:00 18.6 31 Sur 48 Sur 0 -- -- 56
2019-10-12 02:00:00 19.2 26 Sur 52 Sur 0 -- -- 53
2019-10-12 01:00:00 20.5 24 Sur 58 Sur 0 -- -- 44
2019-10-12 00:00:00 20.4 39 Sur 58 Sur 0 -- -- 48
2019-10-11 23:00:00 20.3 37 Sur 59 Sur 0 -- -- 50
2019-10-11 22:00:00 20.1 36 Sur 52 Sur 0 -- -- 54
2019-10-11 21:00:00 20 21 Sur 40 Sudoeste 0 -- -- 58
2019-10-11 20:00:00 20.1 23 Sur 34 Sur 0 -- -- 57
2019-10-11 19:00:00 21.1 19 Sur 31 Sur 0 -- -- 55
2019-10-11 18:00:00 21.8 16 Sur 38 Sudeste 0 -- -- 54
2019-10-11 17:00:00 23.3 16 Sur 42 Sur 0 -- -- 49
2019-10-11 16:00:00 23.3 23 Sur 57 Sudeste 0 -- -- 47
2019-10-11 15:00:00 23 16 Sudeste 35 Sudeste 0 -- -- 50
2019-10-11 14:00:00 23.2 16 Sur 46 Sudeste 0 -- -- 47
2019-10-11 13:00:00 21.5 31 Sur 48 Sur 0 -- -- 51
2019-10-11 12:00:00 22.2 21 Sur 34 Sudoeste 0 -- -- 49
2019-10-11 11:00:00 21.9 14 Sur 28 Sur 0 -- -- 50
2019-10-11 10:00:00 20.8 13 Sur 20 Sur 0 -- -- 51
2019-10-11 09:00:00 17.9 3 Nordeste 12 Sudeste 0 -- -- 57
2019-10-11 08:00:00 17.6 5 Sudeste 13 Sudoeste 0 -- -- 58
2019-10-11 07:00:00 17.5 3 Nordeste 10 Sur 0 -- -- 54
2019-10-11 06:00:00 17.9 3 Sudeste 10 Sudeste 0 -- -- 53
2019-10-11 05:00:00 17.8 0 Calma 19 Sur 0 -- -- 50
2019-10-11 04:00:00 19.5 15 Sur 25 Sur 0 -- -- 45
2019-10-11 03:00:00 18 9 Sudeste 17 Sudeste 0 -- -- 48
2019-10-11 02:00:00 16.5 14 Sur 18 Sur 0 -- -- 50
2019-10-11 01:00:00 16.4 12 Sudeste 15 Sur 0 -- -- 50
2019-10-11 00:00:00 15.9 11 Sur 16 Sur 0 -- -- 53
2019-10-10 23:00:00 14.1 9 Sudeste 19 Sur 0 -- -- 59
2019-10-10 22:00:00 14 14 Sudeste 20 Sudeste 0 -- -- 55
2019-10-10 21:00:00 14 15 Sudeste 17 Sudeste 0 -- -- 58
2019-10-10 20:00:00 17 12 Sudeste 14 Sur 0 -- -- 51
2019-10-10 19:00:00 22.8 6 Norte 17 Norte 0 -- -- 37
2019-10-10 18:00:00 24.6 5 Norte 17 Sur 0 -- -- 35
2019-10-10 17:00:00 24.8 9 Sur 22 Oeste 0 -- -- 30
2019-10-10 16:00:00 24.6 14 Sudoeste 21 Sudoeste 0 -- -- 27
2019-10-10 15:00:00 23.4 9 Norte 16 Norte 0 -- -- 39
2019-10-10 14:00:00 22.2 7 Norte 21 Norte 0 -- -- 42
2019-10-10 13:00:00 21.4 9 Nordeste 18 Nordeste 0 -- -- 43
2019-10-10 12:00:00 19.1 12 Nordeste 19 Nordeste 0 -- -- 47
2019-10-10 11:00:00 16.1 11 Nordeste 17 Este 0 -- -- 56
2019-10-10 10:00:00 11.5 9 Nordeste 13 Nordeste 0 -- -- 69
2019-10-10 09:00:00 12.4 2 Noroeste 23 Este 0 -- -- 61
2019-10-10 08:00:00 13.7 15 Este 26 Este 0 -- -- 57
2019-10-10 07:00:00 10.8 14 Este 21 Nordeste 0 -- -- 69
2019-10-10 06:00:00 11.1 12 Nordeste 18 Este 0 -- -- 65
2019-10-10 05:00:00 13.3 14 Nordeste 24 Este 0 -- -- 57
2019-10-10 04:00:00 13.2 13 Este 17 Nordeste 0 -- -- 56
2019-10-10 03:00:00 12.5 10 Este 19 Este 0 -- -- 59
2019-10-10 02:00:00 14.5 14 Este 21 Este 0 -- -- 54
2019-10-10 01:00:00 13.9 13 Este 18 Este 0 -- -- 52
2019-10-10 00:00:00 14.1 13 Este 18 Este 0 -- -- 47
2019-10-09 23:00:00 14.6 13 Este 19 Este 0 -- -- 42
2019-10-09 22:00:00 13.8 9 Este 14 Este 0 -- -- 44
2019-10-09 21:00:00 12.2 4 Este 7 Sudeste 0 -- -- 58
2019-10-09 20:00:00 17.9 4 Norte 21 Norte 0 -- -- 41
2019-10-09 19:00:00 21 10 Norte 18 Norte 0 -- -- 39
2019-10-09 18:00:00 21.6 9 Norte 21 Norte 0 -- -- 38
2019-10-09 17:00:00 22 12 Norte 22 Norte 0 -- -- 40
2019-10-09 16:00:00 21.7 11 Norte 22 Norte 0 -- -- 47
2019-10-09 15:00:00 21.3 9 Nordeste 18 Norte 0 -- -- 46
2019-10-09 14:00:00 20.1 9 Norte 19 Norte 0 -- -- 51
2019-10-09 13:00:00 19 8 Nordeste 21 Nordeste 0 -- -- 59
2019-10-09 12:00:00 16.7 14 Nordeste 25 Nordeste 0 -- -- 70
2019-10-09 11:00:00 14 9 Nordeste 15 Este 0 -- -- 84
2019-10-09 10:00:00 11.8 3 Este 13 Noroeste 0 -- -- 97
2019-10-09 09:00:00 11.2 8 Noroeste 13 Norte 0 -- -- 95
2019-10-09 08:00:00 12.4 3 Sudeste 18 Noroeste 0 -- -- 93
2019-10-09 07:00:00 13.2 8 Noroeste 16 Norte 0 -- -- 96
2019-10-09 06:00:00 13.4 0 Calma 8 Sur 0 -- -- 94
2019-10-09 05:00:00 13.7 2 Sur 8 Sudeste 0 -- -- 95
2019-10-09 04:00:00 13.7 6 Sudoeste 10 Sudoeste 0 -- -- 96
2019-10-09 03:00:00 13.2 5 Oeste 12 Sudoeste 0 -- -- 93
2019-10-09 02:00:00 14.5 9 Sudoeste 16 Sudoeste 0 -- -- 90
2019-10-09 01:00:00 13.4 7 Sudoeste 12 Sur 0 -- -- 90
2019-10-09 00:00:00 13.8 10 Sur 13 Sur 0 -- -- 85
2019-10-08 23:00:00 15 8 Sur 13 Sur 0 -- -- 79
2019-10-08 22:00:00 16.3 11 Sur 15 Sur 0 -- -- 71
2019-10-08 21:00:00 17.6 13 Sur 16 Sur 0 -- -- 65
2019-10-08 20:00:00 21.9 6 Oeste 19 Oeste 0 -- -- 51
2019-10-08 19:00:00 24.9 14 Oeste 22 Oeste 0 -- -- 44
2019-10-08 18:00:00 25.9 15 Oeste 26 Oeste 0 -- -- 40
2019-10-08 17:00:00 26.3 16 Oeste 28 Oeste 0 -- -- 37
2019-10-08 16:00:00 26.2 16 Oeste 31 Oeste 0 -- -- 37
2019-10-08 15:00:00 26.1 17 Oeste 27 Noroeste 0 -- -- 36
2019-10-08 14:00:00 26.1 9 Sudoeste 26 Oeste 0 -- -- 35
2019-10-08 13:00:00 25 12 Sudoeste 22 Sudoeste 0 -- -- 36
2019-10-08 12:00:00 22.4 5 Oeste 10 Oeste 0 -- -- 43
2019-10-08 11:00:00 20.3 4 Noroeste 9 Sur 0 -- -- 48
2019-10-08 10:00:00 17.2 7 Sur 21 Sur 0 -- -- 57
2019-10-08 09:00:00 13.1 8 Sur 19 Sur 0 -- -- 64
2019-10-08 08:00:00 13.4 13 Sudeste 20 Sudeste 0 -- -- 61
2019-10-08 07:00:00 13.3 13 Sudeste 17 Sudeste 0 -- -- 61
2019-10-08 06:00:00 13.1 15 Sur 19 Sur 0 -- -- 62
2019-10-08 05:00:00 13.5 13 Sur 21 Sur 0 -- -- 61
2019-10-08 04:00:00 13.2 12 Sudeste 17 Sur 0 -- -- 61
2019-10-08 03:00:00 13.6 13 Sur 16 Sudeste 0 -- -- 60
2019-10-08 02:00:00 14.5 13 Sur 18 Sudeste 0 -- -- 58
2019-10-08 01:00:00 14.2 14 Sudeste 20 Sudeste 0 -- -- 54
2019-10-08 00:00:00 15.1 13 Sur 22 Sur 0 -- -- 53
2019-10-07 23:00:00 15.6 17 Sur 20 Sur 0 -- -- 56
2019-10-07 22:00:00 15.7 16 Sur 20 Sur 0 -- -- 52
2019-10-07 21:00:00 16.8 17 Sur 20 Sur 0 -- -- 48
2019-10-07 20:00:00 18.8 14 Sur 17 Sur 0 -- -- 45
2019-10-07 19:00:00 25.2 4 Noroeste 14 Norte 0 -- -- 31
2019-10-07 18:00:00 26.2 7 Norte 17 Norte 0 -- -- 26
2019-10-07 17:00:00 26.3 5 Norte 19 Nordeste 0 -- -- 26
2019-10-07 16:00:00 26.3 6 Norte 17 Nordeste 0 -- -- 26
2019-10-07 15:00:00 25.8 7 Norte 16 Noroeste 0 -- -- 26
2019-10-07 14:00:00 24.6 4 Nordeste 17 Nordeste 0 -- -- 25
2019-10-07 13:00:00 23.1 12 Este 20 Nordeste 0 -- -- 25
2019-10-07 12:00:00 21.7 14 Este 21 Este 0 -- -- 23
2019-10-07 11:00:00 19 9 Nordeste 18 Nordeste 0 -- -- 37
2019-10-07 10:00:00 15.7 5 Nordeste 10 Sudeste 0 -- -- 52
2019-10-07 09:00:00 10.6 9 Sur 11 Sudeste 0 -- -- 51
2019-10-07 08:00:00 10.2 4 Sur 10 Sur 0 -- -- 58
2019-10-07 07:00:00 11.7 9 Este 11 Este 0 -- -- 67
2019-10-07 06:00:00 12.1 10 Este 14 Este 0 -- -- 70
2019-10-07 05:00:00 10.5 7 Este 12 Sudeste 0 -- -- 79
2019-10-07 04:00:00 11.3 9 Sudeste 15 Sur 0 -- -- 86
2019-10-07 03:00:00 11.1 11 Sudeste 14 Sudeste 0 -- -- 83
2019-10-07 02:00:00 11.3 12 Sudeste 14 Sur 0 -- -- 76
2019-10-07 01:00:00 12 12 Sur 14 Sudeste 0 -- -- 71
2019-10-07 00:00:00 12 11 Sur 15 Sur 0 -- -- 63
2019-10-06 23:00:00 12.4 13 Sur 15 Sur 0 -- -- 62
2019-10-06 22:00:00 12.9 13 Sur 17 Sur 0 -- -- 62
2019-10-06 21:00:00 14.1 10 Sur 14 Sur 0 -- -- 59
2019-10-06 20:00:00 18 5 Sur 16 Noroeste 0 -- -- 50
2019-10-06 19:00:00 22.5 9 Noroeste 19 Oeste 0 -- -- 37
2019-10-06 18:00:00 23.4 8 Noroeste 15 Noroeste 0 -- -- 35
2019-10-06 17:00:00 23.6 5 Noroeste 12 Noroeste 0 -- -- 34
2019-10-06 16:00:00 22.9 5 Norte 14 Noroeste 0 -- -- 32
2019-10-06 15:00:00 21.5 6 Norte 12 Norte 0 -- -- 44
2019-10-06 14:00:00 19.8 6 Nordeste 13 Norte 0 -- -- 48
2019-10-06 13:00:00 17.6 5 Norte 13 Nordeste 0 -- -- 60
2019-10-06 12:00:00 16.3 4 Norte 12 Norte 0 -- -- 69
2019-10-06 11:00:00 14.5 4 Norte 8 Norte 0 -- -- 76
2019-10-06 10:00:00 11.6 4 Sudeste 7 Sudeste 0 -- -- 80
2019-10-06 09:00:00 8 6 Sudeste 12 Sur 0 -- -- 83
2019-10-06 08:00:00 8.8 9 Sur 19 Sur 0 -- -- 81
2019-10-06 07:00:00 8.4 15 Sur 19 Sur 0 -- -- 84
2019-10-06 06:00:00 8 12 Sur 16 Sur 0 -- -- 86
2019-10-06 05:00:00 8 11 Sur 16 Sur 0 -- -- 87
2019-10-06 04:00:00 8.3 13 Sur 17 Sur 0 -- -- 85
2019-10-06 03:00:00 9.3 5 Sur 19 Sur 0 -- -- 84
2019-10-06 02:00:00 9.8 11 Sur 16 Sur 0 -- -- 81
2019-10-06 01:00:00 11.5 11 Sur 22 Sur 0 -- -- 78
2019-10-06 00:00:00 10.8 11 Sur 19 Sur 0 -- -- 70
2019-10-05 23:00:00 11.3 14 Sur 21 Sudeste 0 -- -- 58
2019-10-05 22:00:00 11.8 18 Sur 21 Sudeste 0 -- -- 59
2019-10-05 21:00:00 12.4 14 Sur 17 Sur 0 -- -- 63
2019-10-05 20:00:00 16 10 Sur 15 Oeste 0 -- -- 54
2019-10-05 19:00:00 20.9 13 Oeste 22 Oeste 0 -- -- 40
2019-10-05 18:00:00 21.9 15 Oeste 25 Oeste 0 -- -- 40
2019-10-05 17:00:00 22 14 Oeste 27 Oeste 0 -- -- 50
2019-10-05 16:00:00 21.3 16 Oeste 26 Oeste 0 -- -- 58
2019-10-05 15:00:00 20.4 15 Oeste 23 Oeste 0 -- -- 64
2019-10-05 14:00:00 18.7 14 Noroeste 19 Oeste 0 -- -- 71
2019-10-05 13:00:00 17.7 6 Noroeste 15 Noroeste 0 -- -- 75
2019-10-05 12:00:00 17 4 Noroeste 8 Noroeste 0 -- -- 78
2019-10-05 11:00:00 14.9 4 Noroeste 6 Noroeste 0 -- -- 87
2019-10-05 10:00:00 12.3 3 Sur 8 Sudeste 0 -- -- 96
2019-10-05 09:00:00 8.7 3 Sudeste 8 Este 0 -- -- 99
2019-10-05 08:00:00 7.8 4 Sudeste 8 Sudeste 0 -- -- 97
2019-10-05 07:00:00 8.5 3 Sudeste 13 Sur 0 -- -- 94
2019-10-05 06:00:00 9.4 2 Sudeste 11 Sudeste 0 -- -- 96
2019-10-05 05:00:00 8.8 6 Sudeste 14 Sudeste 0 -- -- 94
2019-10-05 04:00:00 9.1 9 Sur 12 Sudeste 0 -- -- 93
2019-10-05 03:00:00 9.9 10 Sur 16 Sudeste 0 -- -- 91
2019-10-05 02:00:00 10.4 12 Sur 15 Sur 0 -- -- 89
2019-10-05 01:00:00 11.5 13 Sur 18 Sur 0 -- -- 87
2019-10-05 00:00:00 12 15 Sur 19 Sur 0 -- -- 86
2019-10-04 23:00:00 12.7 10 Sur 19 Sudeste 0 -- -- 82
2019-10-04 22:00:00 12.9 15 Sur 17 Sudeste 0 -- -- 79
2019-10-04 21:00:00 14.1 9 Sur 16 Sur 0 -- -- 76
2019-10-04 20:00:00 18.7 7 Sur 19 Oeste 0 -- -- 61
2019-10-04 19:00:00 21.4 15 Oeste 21 Oeste 0 -- -- 52
2019-10-04 18:00:00 23 14 Oeste 23 Sudoeste 0 -- -- 46
2019-10-04 17:00:00 22.5 9 Oeste 21 Oeste 0 -- -- 51
2019-10-04 16:00:00 21.3 10 Oeste 35 Oeste 0 -- -- 56
2019-10-04 15:00:00 20.4 11 Oeste 23 Oeste 0 -- -- 64
2019-10-04 14:00:00 19.5 13 Oeste 22 Oeste 0 -- -- 68
2019-10-04 13:00:00 17.6 9 Oeste 18 Oeste 0 -- -- 81
2019-10-04 12:00:00 15 4 Oeste 11 Oeste 0 -- -- 97
2019-10-04 11:00:00 13.8 6 Oeste 12 Oeste 0 -- -- 97
2019-10-04 10:00:00 13.5 5 Oeste 11 Sur 0 -- -- 96
2019-10-04 09:00:00 11.2 12 Sur 16 Sudeste 0 -- -- 94
2019-10-04 08:00:00 11.8 11 Sudeste 14 Sudeste 0 -- -- 96
2019-10-04 07:00:00 11.2 3 Sur 15 Sur 0 -- -- 95
2019-10-04 06:00:00 10.8 12 Sur 16 Sudeste 0 -- -- 94
2019-10-04 05:00:00 10.9 7 Sur 15 Sur 0 -- -- 94
2019-10-04 04:00:00 11.8 13 Sur 19 Sudeste 0 -- -- 91
2019-10-04 03:00:00 11.7 14 Sur 18 Sur 0 -- -- 90
2019-10-04 02:00:00 12.1 11 Sudeste 20 Sur 0 -- -- 91
2019-10-04 01:00:00 12.1 14 Sur 17 Sur 0 -- -- 89
2019-10-04 00:00:00 13.2 5 Sur 15 Sudoeste 0 -- -- 85
2019-10-03 23:00:00 14.5 10 Sudoeste 18 Sudoeste 0 -- -- 79
2019-10-03 22:00:00 14.4 10 Sudoeste 18 Sur 0 -- -- 61
2019-10-03 21:00:00 14.1 13 Sur 18 Sur 0 -- -- 47
2019-10-03 20:00:00 18.2 6 Sur 10 Sur 0 -- -- 43
2019-10-03 19:00:00 22.5 7 Oeste 18 Noroeste 0 -- -- 29
2019-10-03 18:00:00 22.9 9 Oeste 18 Oeste 0 -- -- 26
2019-10-03 17:00:00 22.5 8 Noroeste 22 Noroeste 0 -- -- 34
2019-10-03 16:00:00 21.7 9 Noroeste 23 Noroeste 0 -- -- 38
2019-10-03 15:00:00 21 11 Oeste 21 Oeste 0 -- -- 42
2019-10-03 14:00:00 19.9 5 Oeste 18 Noroeste 0 -- -- 39
2019-10-03 13:00:00 19.2 8 Noroeste 16 Noroeste 0 -- -- 45
2019-10-03 12:00:00 18.4 3 Norte 9 Nordeste 0 -- -- 45
2019-10-03 11:00:00 15.4 3 Noroeste 8 Sur 0 -- -- 57
2019-10-03 10:00:00 12.2 4 Sur 12 Sur 0 -- -- 67
2019-10-03 09:00:00 8.4 13 Sur 19 Sur 0 -- -- 76
2019-10-03 08:00:00 8.4 10 Sur 15 Sur 0 -- -- 75
2019-10-03 07:00:00 8.7 13 Sur 16 Sudeste 0 -- -- 74
2019-10-03 06:00:00 8.7 13 Sur 17 Sudeste 0 -- -- 73
2019-10-03 05:00:00 9.1 11 Sur 15 Sur 0 -- -- 72
2019-10-03 04:00:00 8.7 10 Sudeste 12 Sudeste 0 -- -- 75
2019-10-03 03:00:00 9.1 6 Sudeste 10 Sudeste 0 -- -- 74
2019-10-03 02:00:00 9.8 5 Sudeste 12 Este 0 -- -- 69
2019-10-03 01:00:00 13 10 Este 17 Este 0 -- -- 55
2019-10-03 00:00:00 13.2 12 Este 17 Sudeste 0 -- -- 55
2019-10-02 23:00:00 13 12 Este 16 Este 0 -- -- 57
2019-10-02 22:00:00 11.3 7 Sudeste 13 Este 0 -- -- 65
2019-10-02 21:00:00 10.9 7 Sudeste 8 Sudeste 0 -- -- 69
2019-10-02 20:00:00 16.9 3 Norte 14 Norte 0 -- -- 49
2019-10-02 19:00:00 18.8 5 Norte 17 Norte 0 -- -- 44
2019-10-02 18:00:00 19.1 7 Norte 22 Norte 0 -- -- 45
2019-10-02 17:00:00 18.7 8 Noroeste 19 Norte 0 -- -- 47
2019-10-02 16:00:00 18.2 8 Noroeste 22 Nordeste 0 -- -- 46
2019-10-02 15:00:00 16.9 8 Norte 17 Norte 0 -- -- 53
2019-10-02 14:00:00 15.7 5 Noroeste 16 Norte 0 -- -- 61
2019-10-02 13:00:00 14 7 Norte 17 Norte 0 -- -- 69
2019-10-02 12:00:00 12.7 8 Norte 15 Norte 0 -- -- 73
2019-10-02 11:00:00 11.1 11 Norte 17 Norte 0 -- -- 78
2019-10-02 10:00:00 9.9 0 Calma 13 Sur 0 -- -- 86
2019-10-02 09:00:00 7.5 9 Sur 12 Sudeste 0 -- -- 94
2019-10-02 08:00:00 7.6 6 Sudoeste 12 Sudoeste 0 -- -- 95
2019-10-02 07:00:00 8.5 7 Sudoeste 15 Sudoeste 0 -- -- 95
2019-10-02 06:00:00 9.1 6 Sudoeste 15 Sudoeste 0 -- -- 95
2019-10-02 05:00:00 9.3 9 Sudoeste 14 Sudoeste 0 -- -- 95
2019-10-02 04:00:00 8.8 9 Sudoeste 18 Sudoeste 0 -- -- 94
2019-10-02 03:00:00 9.3 13 Sudoeste 17 Sudoeste 0 -- -- 93
2019-10-02 02:00:00 9.8 10 Sudoeste 17 Sudoeste 0 -- -- 91
2019-10-02 01:00:00 10.5 10 Sudoeste 16 Sudoeste 0 -- -- 88
2019-10-02 00:00:00 11.2 9 Sudoeste 15 Oeste 0 -- -- 84
2019-10-01 23:00:00 12.6 12 Oeste 23 Oeste 0 -- -- 80
2019-10-01 22:00:00 13.9 13 Oeste 27 Sudoeste 0 -- -- 73
2019-10-01 21:00:00 14.4 14 Oeste 19 Oeste 0 -- -- 67
2019-10-01 20:00:00 17.5 8 Oeste 23 Noroeste 0 -- -- 57
2019-10-01 19:00:00 19.7 15 Oeste 28 Oeste 0 -- -- 49
2019-10-01 18:00:00 20.1 18 Oeste 32 Oeste 0 -- -- 50
2019-10-01 17:00:00 19.3 13 Noroeste 27 Oeste 0 -- -- 57
2019-10-01 16:00:00 18.5 15 Oeste 27 Oeste 0 -- -- 59
2019-10-01 15:00:00 17.1 17 Oeste 29 Oeste 0 -- -- 64
2019-10-01 14:00:00 15.3 16 Noroeste 26 Oeste 0 -- -- 83
2019-10-01 13:00:00 15.9 13 Oeste 24 Oeste 0 -- -- 77
2019-10-01 12:00:00 15.4 12 Oeste 21 Oeste 0 -- -- 75
2019-10-01 11:00:00 13.9 8 Sudoeste 19 Oeste 0 -- -- 83
2019-10-01 10:00:00 12.6 14 Oeste 22 Oeste 0 -- -- 90
2019-10-01 09:00:00 12.4 11 Oeste 18 Sudoeste 0 -- -- 91
2019-10-01 08:00:00 12.6 10 Oeste 20 Sudoeste 0 -- -- 94
2019-10-01 07:00:00 12.4 8 Sudoeste 19 Oeste 0 -- -- 94
2019-10-01 06:00:00 13 14 Oeste 19 Oeste 0 -- -- 94
2019-10-01 05:00:00 13.2 8 Sudoeste 26 Sudoeste 0 -- -- 94
2019-10-01 04:00:00 12.8 12 Sur 17 Sur 0 -- -- 78
2019-10-01 03:00:00 12.8 12 Sur 18 Sur 0 -- -- 81
2019-10-01 02:00:00 12.6 15 Sur 18 Sur 0 -- -- 79
2019-10-01 01:00:00 12.8 10 Sur 15 Sudeste 0 -- -- 75
2019-10-01 00:00:00 13.2 10 Sur 14 Sur 0 -- -- 66
2019-09-30 23:00:00 14.9 9 Sur 20 Sur 0 -- -- 57
2019-09-30 22:00:00 16.4 16 Sur 22 Sur 0 -- -- 52
2019-09-30 21:00:00 18.4 13 Sur 19 Sur 0 -- -- 45
2019-09-30 20:00:00 21.7 13 Sur 25 Sur 0 -- -- 35
2019-09-30 19:00:00 24.3 14 Sur 24 Sudoeste 0 -- -- 34
2019-09-30 18:00:00 25.5 14 Sudoeste 24 Sur 0 -- -- 33
2019-09-30 17:00:00 25.9 15 Sur 24 Sudoeste 0 -- -- 32
2019-09-30 16:00:00 26.1 11 Sur 27 Sur 0 -- -- 34
2019-09-30 15:00:00 25.7 14 Sur 25 Sudoeste 0 -- -- 35
2019-09-30 14:00:00 24.7 13 Sur 25 Sudoeste 0 -- -- 37
2019-09-30 13:00:00 24.5 11 Sudoeste 23 Sudoeste 0 -- -- 37
2019-09-30 12:00:00 23.3 13 Sudoeste 23 Oeste 0 -- -- 39
2019-09-30 11:00:00 20.8 3 Noroeste 5 Noroeste 0 -- -- 53
2019-09-30 10:00:00 17.3 2 Sudeste 20 Sur 0 -- -- 60
2019-09-30 09:00:00 12.8 15 Sudeste 19 Sudeste 0 -- -- 70
2019-09-30 08:00:00 10.6 14 Sur 17 Sur 0 -- -- 82
2019-09-30 07:00:00 10.9 10 Sudeste 12 Sudeste 0 -- -- 92
2019-09-30 06:00:00 11.1 7 Este 10 Este 0 -- -- 92
2019-09-30 05:00:00 11.4 7 Sudeste 12 Sudeste 0 -- -- 91
2019-09-30 04:00:00 11.1 12 Sur 13 Sudeste 0 -- -- 89
2019-09-30 03:00:00 12.3 10 Sur 17 Sur 0 -- -- 84
2019-09-30 02:00:00 12.1 14 Sur 18 Sur 0 -- -- 83
2019-09-30 01:00:00 12.8 14 Sur 20 Sur 0 -- -- 79
2019-09-30 00:00:00 13.4 13 Sur 17 Sur 0 -- -- 73
2019-09-29 23:00:00 14.3 14 Sur 19 Sur 0 -- -- 67
2019-09-29 22:00:00 15.1 13 Sur 17 Sur 0 -- -- 60
2019-09-29 21:00:00 15.8 11 Sur 19 Sudeste 0 -- -- 56
2019-09-29 20:00:00 20.9 6 Sur 14 Oeste 0 -- -- 42
2019-09-29 19:00:00 24.4 10 Oeste 16 Oeste 0 -- -- 32
2019-09-29 18:00:00 25.4 8 Oeste 17 Oeste 0 -- -- 23
2019-09-29 17:00:00 24.9 11 Oeste 22 Oeste 0 -- -- 21
2019-09-29 16:00:00 24.4 14 Oeste 28 Noroeste 0 -- -- 23
2019-09-29 15:00:00 23.7 15 Oeste 24 Oeste 0 -- -- 34
2019-09-29 14:00:00 23.1 15 Oeste 23 Oeste 0 -- -- 30
2019-09-29 13:00:00 21.4 10 Noroeste 19 Oeste 0 -- -- 49
2019-09-29 12:00:00 20 13 Noroeste 19 Oeste 0 -- -- 59
2019-09-29 11:00:00 19.2 6 Noroeste 12 Noroeste 0 -- -- 58
2019-09-29 10:00:00 15.4 5 Sur 10 Sur 0 -- -- 66
2019-09-29 09:00:00 10.4 5 Sur 14 Sur 0 -- -- 76
2019-09-29 08:00:00 10.4 6 Sur 11 Sudeste 0 -- -- 71
2019-09-29 07:00:00 11.5 7 Sur 21 Sudeste 0 -- -- 67
2019-09-29 06:00:00 10.9 13 Sudeste 19 Sudeste 0 -- -- 72
2019-09-29 05:00:00 10.6 11 Sur 14 Sur 0 -- -- 71
2019-09-29 04:00:00 11.6 9 Sudeste 20 Sudeste 0 -- -- 67
2019-09-29 03:00:00 10.9 13 Sudeste 17 Sur 0 -- -- 64
2019-09-29 02:00:00 12.2 17 Sur 22 Sur 0 -- -- 53
2019-09-29 01:00:00 12.6 17 Sur 22 Sur 0 -- -- 48
2019-09-29 00:00:00 13.1 13 Sur 16 Sur 0 -- -- 46
2019-09-28 23:00:00 14.1 7 Sudeste 20 Sudeste 0 -- -- 52
2019-09-28 22:00:00 16.4 15 Sur 19 Sur 0 -- -- 47
2019-09-28 21:00:00 17 16 Sur 19 Sur 0 -- -- 51
2019-09-28 20:00:00 20.8 10 Sur 16 Sudoeste 0 -- -- 43
2019-09-28 19:00:00 25.1 9 Sur 17 Sur 0 -- -- 33
2019-09-28 18:00:00 25.9 5 Norte 16 Norte 0 -- -- 34
2019-09-28 17:00:00 25.7 9 Noroeste 17 Oeste 0 -- -- 32
2019-09-28 16:00:00 25.3 6 Norte 15 Noroeste 0 -- -- 32
2019-09-28 15:00:00 24.2 8 Noroeste 19 Noroeste 0 -- -- 34
2019-09-28 14:00:00 23.3 8 Noroeste 15 Oeste 0 -- -- 42
2019-09-28 13:00:00 22.4 7 Noroeste 12 Noroeste 0 -- -- 48
2019-09-28 12:00:00 21.1 4 Noroeste 8 Noroeste 0 -- -- 48
2019-09-28 11:00:00 18.9 2 Noroeste 13 Sur 0 -- -- 55
2019-09-28 10:00:00 13.6 11 Sur 15 Sudeste 0 -- -- 62
2019-09-28 09:00:00 9.2 14 Sudeste 21 Sur 0 -- -- 72
2019-09-28 08:00:00 8.1 16 Sur 17 Sur 0 -- -- 73
2019-09-28 07:00:00 8.1 14 Sudeste 18 Sur 0 -- -- 80
2019-09-28 06:00:00 8.3 14 Sur 16 Sudeste 0 -- -- 87
2019-09-28 05:00:00 8.5 12 Sudeste 14 Sur 0 -- -- 92
2019-09-28 04:00:00 8.9 9 Sudeste 11 Sur 0 -- -- 95
2019-09-28 03:00:00 9.4 11 Sudeste 13 Sudeste 0 -- -- 94
2019-09-28 02:00:00 10.2 10 Sudeste 15 Sudeste 0 -- -- 93
2019-09-28 01:00:00 10.5 11 Sur 16 Sur 0 -- -- 92
2019-09-28 00:00:00 11.4 11 Sur 16 Sur 0 -- -- 89
2019-09-27 23:00:00 11.9 11 Sur 14 Sudeste 0 -- -- 86
2019-09-27 22:00:00 13.2 7 Sur 13 Sur 0 -- -- 78
2019-09-27 21:00:00 14.4 7 Sur 11 Sur 0 -- -- 71
2019-09-27 20:00:00 19.3 9 Noroeste 19 Noroeste 0 -- -- 55
2019-09-27 19:00:00 21.3 12 Noroeste 21 Noroeste 0 -- -- 47
2019-09-27 18:00:00 22.3 11 Noroeste 22 Noroeste 0 -- -- 40
2019-09-27 17:00:00 22.1 13 Noroeste 25 Noroeste 0 -- -- 39
2019-09-27 16:00:00 21.7 12 Noroeste 26 Oeste 0 -- -- 41
2019-09-27 15:00:00 21.1 8 Noroeste 22 Noroeste 0 -- -- 39
2019-09-27 14:00:00 20.4 9 Oeste 17 Oeste 0 -- -- 38
2019-09-27 13:00:00 19.2 4 Noroeste 15 Noroeste 0 -- -- 40
2019-09-27 12:00:00 18.1 7 Noroeste 12 Noroeste 0 -- -- 49
2019-09-27 11:00:00 16.6 6 Noroeste 10 Noroeste 0 -- -- 59
2019-09-27 10:00:00 13.9 6 Sur 17 Sur 0 -- -- 60
2019-09-27 09:00:00 10.7 13 Sur 20 Sur 0 -- -- 78
2019-09-27 08:00:00 9.6 15 Sur 22 Sur 0 -- -- 79
2019-09-27 07:00:00 8.5 14 Sur 17 Sudeste 0 -- -- 83
2019-09-27 06:00:00 10 14 Sur 19 Sur 0 -- -- 74
2019-09-27 05:00:00 9.2 11 Sur 15 Sur 0 -- -- 74
2019-09-27 04:00:00 9.9 17 Sur 21 Sur 0 -- -- 74
2019-09-27 03:00:00 10.8 12 Sur 22 Sur 0 -- -- 67
2019-09-27 02:00:00 11.1 17 Sur 22 Sur 0 -- -- 67
2019-09-27 01:00:00 11.6 17 Sur 23 Sur 0 -- -- 67
2019-09-27 00:00:00 12 15 Sur 21 Sur 0 -- -- 64
2019-09-26 23:00:00 12.6 14 Sur 21 Sur 0 -- -- 63
2019-09-26 22:00:00 13.7 15 Sur 21 Sur 0 -- -- 60
2019-09-26 21:00:00 14.9 17 Sur 20 Sur 0 -- -- 56
2019-09-26 20:00:00 20.5 4 Sur 18 Noroeste 0 -- -- 43
2019-09-26 19:00:00 22.6 12 Noroeste 21 Noroeste 0 -- -- 34
2019-09-26 18:00:00 23.5 12 Oeste 27 Oeste 0 -- -- 33
2019-09-26 17:00:00 23.4 18 Noroeste 35 Noroeste 0 -- -- 38
2019-09-26 16:00:00 23.2 18 Noroeste 29 Oeste 0 -- -- 45
2019-09-26 15:00:00 23.4 10 Oeste 27 Sudoeste 0 -- -- 45
2019-09-26 14:00:00 21.7 16 Noroeste 24 Noroeste 0 -- -- 52
2019-09-26 13:00:00 19.6 9 Noroeste 15 Noroeste 0 -- -- 63
2019-09-26 12:00:00 19.1 8 Noroeste 13 Oeste 0 -- -- 62
2019-09-26 11:00:00 18.2 0 Calma 11 Sudeste 0 -- -- 56
2019-09-26 10:00:00 14.2 11 Sudeste 16 Sudeste 0 -- -- 76
2019-09-26 09:00:00 9.8 5 Sudeste 15 Sudeste 0 -- -- 96
2019-09-26 08:00:00 8 9 Sudeste 12 Sur 0 -- -- 95
2019-09-26 07:00:00 8.1 6 Sudeste 13 Sur 0 -- -- 95
2019-09-26 06:00:00 8.2 9 Sudeste 14 Sur 0 -- -- 96
2019-09-26 05:00:00 8.3 5 Sudeste 12 Sudeste 0 -- -- 94
2019-09-26 04:00:00 8.9 9 Sudeste 15 Sur 0 -- -- 93
2019-09-26 03:00:00 9.4 9 Sur 14 Sur 0 -- -- 91
2019-09-26 02:00:00 9.5 10 Sur 13 Sur 0 -- -- 91
2019-09-26 01:00:00 10.2 12 Sur 17 Sur 0 -- -- 88
2019-09-26 00:00:00 10.6 13 Sur 16 Sur 0 -- -- 86
2019-09-25 23:00:00 11.2 12 Sur 15 Sur 0 -- -- 84
2019-09-25 22:00:00 11.8 11 Sur 14 Sur 0 -- -- 81
2019-09-25 21:00:00 13.2 13 Sur 15 Sur 0 -- -- 76
2019-09-25 20:00:00 17 5 Oeste 13 Noroeste 0 -- -- 61
2019-09-25 19:00:00 18.7 9 Oeste 17 Noroeste 0 -- -- 54
2019-09-25 18:00:00 19.1 12 Oeste 19 Noroeste 0 -- -- 54
2019-09-25 17:00:00 18.7 8 Noroeste 19 Noroeste 0 -- -- 56
2019-09-25 16:00:00 17.9 11 Noroeste 19 Oeste 0 -- -- 58
2019-09-25 15:00:00 16.5 8 Noroeste 19 Oeste 0 -- -- 65
2019-09-25 14:00:00 15.3 5 Norte 13 Noroeste 0 -- -- 68
2019-09-25 13:00:00 13.7 4 Noroeste 15 Oeste 0 -- -- 78
2019-09-25 12:00:00 12 8 Noroeste 20 Norte 0 -- -- 83
2019-09-25 11:00:00 11.2 10 Noroeste 19 Noroeste 0 -- -- 85
2019-09-25 10:00:00 10.9 0 Calma 9 Sur 0 -- -- 86
2019-09-25 09:00:00 8.4 6 Sur 8 Sur 0 -- -- 97
2019-09-25 08:00:00 8.5 2 Sudeste 6 Norte 0 -- -- 97
2019-09-25 07:00:00 9.3 2 Norte 12 Norte 0 -- -- 98
2019-09-25 06:00:00 9.8 6 Noroeste 14 Noroeste 0 -- -- 97
2019-09-25 05:00:00 10.1 6 Noroeste 14 Oeste 0 -- -- 97
2019-09-25 04:00:00 10.4 7 Oeste 12 Oeste 0 -- -- 96
2019-09-25 03:00:00 10.2 5 Sudoeste 14 Sudoeste 0 -- -- 95
2019-09-25 02:00:00 9.8 7 Sudoeste 15 Sudoeste 0 -- -- 94
2019-09-25 01:00:00 10.2 6 Sudoeste 14 Sudoeste 0 -- -- 92
2019-09-25 00:00:00 11.1 8 Sudoeste 16 Sudoeste 0 -- -- 90
2019-09-24 23:00:00 12.4 10 Sudoeste 22 Sudoeste 0 -- -- 88
2019-09-24 22:00:00 13.2 13 Sudoeste 23 Sudoeste 0 -- -- 88
2019-09-24 21:00:00 14.3 15 Oeste 25 Oeste 0 -- -- 87
2019-09-24 20:00:00 15.8 17 Oeste 36 Oeste 0 -- -- 81
2019-09-24 19:00:00 16.4 12 Sudoeste 23 Sudoeste 0 -- -- 87
2019-09-24 18:00:00 16 12 Oeste 28 Oeste 0.2 -- -- 96
2019-09-24 17:00:00 16.4 13 Sudoeste 20 Sudoeste 0.6 -- -- 96
2019-09-24 16:00:00 16.1 6 Oeste 15 Oeste 2.8 -- -- 94
2019-09-24 15:00:00 17 17 Oeste 28 Oeste 0.2 -- -- 91
2019-09-24 14:00:00 19.6 18 Oeste 31 Oeste 0 -- -- 72
2019-09-24 13:00:00 19.2 17 Sudoeste 31 Sudoeste 0 -- -- 69
2019-09-24 12:00:00 18.5 19 Sudoeste 34 Sudoeste 0 -- -- 74
2019-09-24 11:00:00 17.8 17 Sudoeste 30 Sudoeste 0 -- -- 74
2019-09-24 10:00:00 16.9 14 Sudoeste 25 Sudoeste 0 -- -- 63
2019-09-24 09:00:00 14.6 13 Sudoeste 27 Sudoeste 0 -- -- 58
2019-09-24 08:00:00 15.4 20 Sudoeste 28 Sudoeste 0 -- -- 52
2019-09-24 07:00:00 12.5 12 Sudoeste 22 Sur 0 -- -- 54
2019-09-24 06:00:00 12.8 10 Oeste 15 Sudoeste 0 -- -- 57
2019-09-24 05:00:00 12.6 7 Oeste 16 Sudoeste 0 -- -- 67
2019-09-24 04:00:00 12.6 3 Oeste 10 Sur 0 -- -- 67
2019-09-24 03:00:00 11.2 6 Este 12 Sudeste 0 -- -- 79
2019-09-24 02:00:00 10.6 5 Sudeste 14 Sudeste 0 -- -- 85
2019-09-24 01:00:00 12 5 Sudeste 12 Sur 0 -- -- 79
2019-09-24 00:00:00 12 9 Sudeste 16 Sur 0 -- -- 80
2019-09-23 23:00:00 13 13 Sur 17 Sudeste 0 -- -- 76
2019-09-23 22:00:00 14.2 9 Sur 18 Sur 0 -- -- 73
2019-09-23 21:00:00 15.1 8 Sur 14 Sur 0 -- -- 71
2019-09-23 20:00:00 18.6 7 Sudoeste 18 Sudoeste 0 -- -- 57
2019-09-23 19:00:00 20.1 9 Sudoeste 19 Sudoeste 0 -- -- 52
2019-09-23 18:00:00 21.2 8 Sudoeste 26 Oeste 0 -- -- 49
2019-09-23 17:00:00 21.7 11 Sudoeste 22 Sur 0 -- -- 47
2019-09-23 16:00:00 21.7 11 Sudoeste 21 Oeste 0 -- -- 49
2019-09-23 15:00:00 20.5 13 Oeste 22 Sudoeste 0 -- -- 47
2019-09-23 14:00:00 19.2 14 Sudoeste 23 Sudoeste 0 -- -- 48
2019-09-23 13:00:00 17 8 Noroeste 16 Oeste 0 -- -- 61
2019-09-23 12:00:00 15.1 4 Oeste 13 Oeste 0 -- -- 67
2019-09-23 11:00:00 13.7 3 Oeste 10 Nordeste 0 -- -- 72
2019-09-23 10:00:00 11.3 5 Este 12 Sur 0 -- -- 80
2019-09-23 09:00:00 7.7 5 Sudeste 13 Sudeste 0 -- -- 95
2019-09-23 08:00:00 6.9 12 Sur 15 Sudeste 0 -- -- 95
2019-09-23 07:00:00 6.8 10 Sudeste 13 Este 0 -- -- 95
2019-09-23 06:00:00 7.7 10 Este 15 Este 0 -- -- 98
2019-09-23 05:00:00 7.1 8 Sudeste 15 Sudeste 0 -- -- 94
2019-09-23 04:00:00 7.5 9 Sur 16 Sur 0 -- -- 94
2019-09-23 03:00:00 7.9 10 Sur 17 Sur 0 -- -- 94
2019-09-23 02:00:00 8.3 10 Sur 14 Sudeste 0 -- -- 92
2019-09-23 01:00:00 9.5 8 Sur 16 Sudoeste 0 -- -- 87
2019-09-23 00:00:00 10.2 11 Sudoeste 18 Sudoeste 0 -- -- 87
2019-09-22 23:00:00 9.4 9 Sudoeste 15 Sur 0 -- -- 84
2019-09-22 22:00:00 10 14 Sur 17 Sur 0 -- -- 81
2019-09-22 21:00:00 11.4 9 Sur 13 Oeste 0 -- -- 76
2019-09-22 20:00:00 15.2 8 Oeste 22 Oeste 0 -- -- 56
2019-09-22 19:00:00 16.2 13 Oeste 27 Oeste 0 -- -- 55
2019-09-22 18:00:00 16.4 13 Oeste 31 Oeste 0 -- -- 59
2019-09-22 17:00:00 16.3 15 Oeste 31 Oeste 0 -- -- 60
2019-09-22 16:00:00 15.7 19 Oeste 28 Oeste 0 -- -- 66
2019-09-22 15:00:00 15.7 13 Oeste 24 Noroeste 0 -- -- 68
2019-09-22 14:00:00 15.2 14 Oeste 27 Oeste 0 -- -- 72
2019-09-22 13:00:00 13.4 14 Oeste 23 Oeste 0 -- -- 80
2019-09-22 12:00:00 13 8 Oeste 16 Oeste 0 -- -- 84
2019-09-22 11:00:00 11.9 7 Oeste 17 Sudoeste 0 -- -- 88
2019-09-22 10:00:00 11.6 6 Sudoeste 10 Oeste 0 -- -- 90
2019-09-22 09:00:00 9 5 Sur 12 Sudoeste 0 -- -- 97
2019-09-22 08:00:00 8.1 7 Sur 14 Sur 0 -- -- 95
2019-09-22 07:00:00 8.8 10 Sur 15 Sudoeste 0 -- -- 94
2019-09-22 06:00:00 9.6 8 Sur 15 Sudoeste 0 -- -- 94
2019-09-22 05:00:00 9.9 10 Sur 17 Sudoeste 0 -- -- 96
2019-09-22 04:00:00 9.5 12 Sudoeste 19 Sudoeste 0 -- -- 98
2019-09-22 03:00:00 9.2 11 Sudoeste 25 Sudoeste 0.4 -- -- 98
2019-09-22 02:00:00 9.7 25 Oeste 35 Oeste 1.4 -- -- 95
2019-09-22 01:00:00 14.3 26 Oeste 38 Oeste 1.6 -- -- 96
2019-09-22 00:00:00 15 13 Sudoeste 40 Sur 0.8 -- -- 94
2019-09-21 23:00:00 15.6 19 Sur 54 Sur 1.2 -- -- 90
2019-09-21 22:00:00 15.5 24 Sur 49 Sudoeste 0.2 -- -- 89
2019-09-21 21:00:00 15.3 26 Sur 57 Sur 0.4 -- -- 89
2019-09-21 20:00:00 14.9 37 Sur 71 Sur 0 -- -- 87
2019-09-21 19:00:00 15.3 32 Sur 56 Sur 1 -- -- 86
2019-09-21 18:00:00 15.3 39 Sur 60 Sur 0 -- -- 83
2019-09-21 17:00:00 16.2 25 Sur 54 Sur 0 -- -- 80
2019-09-21 16:00:00 17 27 Sur 58 Sur 0 -- -- 76
2019-09-21 15:00:00 16.2 19 Sur 58 Sur 0 -- -- 78
2019-09-21 14:00:00 16.3 28 Sur 57 Sudeste 0 -- -- 80
2019-09-21 13:00:00 16 35 Sur 57 Sur 0 -- -- 80
2019-09-21 12:00:00 14 29 Sur 50 Sudeste 0.2 -- -- 86
2019-09-21 11:00:00 14 30 Sur 55 Sur 0.2 -- -- 87
2019-09-21 10:00:00 13.6 34 Sur 58 Sur 1 -- -- 89
2019-09-21 09:00:00 13.5 35 Sur 56 Sur 0.4 -- -- 87
2019-09-21 08:00:00 14.2 17 Sur 44 Sur 0 -- -- 84
2019-09-21 07:00:00 14.5 21 Sur 49 Sur 0 -- -- 78
2019-09-21 06:00:00 14.5 29 Sur 45 Sur 0 -- -- 79
2019-09-21 05:00:00 14.7 22 Sur 37 Sur 0 -- -- 77
2019-09-21 04:00:00 14.5 16 Sur 39 Sur 0 -- -- 78
2019-09-21 03:00:00 14.4 18 Sudoeste 31 Sur 0 -- -- 78
2019-09-21 02:00:00 14.6 13 Sur 30 Sudoeste 0 -- -- 75
2019-09-21 01:00:00 15.4 14 Sur 39 Sur 0 -- -- 63
2019-09-21 00:00:00 15.9 19 Sur 32 Sur 0 -- -- 68
2019-09-20 23:00:00 16.3 16 Sudoeste 24 Sudoeste 0 -- -- 72
2019-09-20 22:00:00 16.5 14 Sur 27 Sur 0 -- -- 70
2019-09-20 21:00:00 16.3 11 Sur 24 Sur 0 -- -- 71
2019-09-20 20:00:00 17 11 Sudoeste 38 Sur 0 -- -- 68
2019-09-20 19:00:00 17.2 25 Sur 40 Sur 0 -- -- 68
2019-09-20 18:00:00 19.9 19 Sur 42 Sur 0 -- -- 59
2019-09-20 17:00:00 22.1 26 Sur 50 Sur 0 -- -- 50
2019-09-20 16:00:00 22.5 20 Sur 42 Sudeste 0 -- -- 48
2019-09-20 15:00:00 21.2 16 Sudeste 48 Sudeste 0 -- -- 53
2019-09-20 14:00:00 20.3 15 Sudeste 44 Sudeste 0 -- -- 57
2019-09-20 13:00:00 19.2 10 Sur 28 Sudeste 0 -- -- 58
2019-09-20 12:00:00 18 8 Sur 31 Sur 0 -- -- 62
2019-09-20 11:00:00 17.9 10 Sur 31 Oeste 0 -- -- 63
2019-09-20 10:00:00 17.9 10 Sur 24 Sur 0 -- -- 63
2019-09-20 09:00:00 17.3 5 Nordeste 36 Sudeste 0 -- -- 63
2019-09-20 08:00:00 17.8 13 Sur 29 Sudeste 0 -- -- 60
2019-09-20 07:00:00 17.9 12 Sur 23 Sudeste 0 -- -- 59
2019-09-20 06:00:00 15.9 9 Sudeste 16 Sur 0 -- -- 67
2019-09-20 05:00:00 16 10 Sudeste 15 Sudeste 0 -- -- 71
2019-09-20 04:00:00 16 12 Sudeste 15 Sudeste 0 -- -- 69
2019-09-20 03:00:00 16.4 13 Sudeste 15 Sudeste 0 -- -- 67
2019-09-20 02:00:00 16.3 9 Sudeste 12 Sur 0 -- -- 70
2019-09-20 01:00:00 15.5 7 Sur 15 Sur 0 -- -- 74
2019-09-20 00:00:00 16.6 13 Sur 17 Sur 0 -- -- 70
2019-09-19 23:00:00 16.3 15 Sur 20 Sur 0 -- -- 70
2019-09-19 22:00:00 16.8 6 Sudeste 9 Sudeste 0 -- -- 68
2019-09-19 21:00:00 17.9 0 Calma 14 Sur 0 -- -- 63
2019-09-19 20:00:00 22.4 8 Sudeste 18 Sudeste 0 -- -- 47
2019-09-19 19:00:00 24.1 11 Sudeste 18 Sudeste 0 -- -- 40
2019-09-19 18:00:00 24.4 3 Este 12 Sudoeste 0 -- -- 42
2019-09-19 17:00:00 24.7 8 Oeste 13 Oeste 0 -- -- 43
2019-09-19 16:00:00 23.4 2 Noroeste 14 Noroeste 0 -- -- 46
2019-09-19 15:00:00 23.3 5 Oeste 22 Oeste 0 -- -- 46
2019-09-19 14:00:00 23.3 12 Oeste 19 Oeste 0 -- -- 49
2019-09-19 13:00:00 23.7 13 Sudoeste 22 Sudoeste 0 -- -- 46
2019-09-19 12:00:00 22.9 10 Este 17 Este 0 -- -- 46
2019-09-19 11:00:00 22.3 9 Este 15 Este 0 -- -- 47
2019-09-19 10:00:00 17.9 3 Sudeste 12 Sudeste 0 -- -- 71
2019-09-19 09:00:00 15.5 7 Sudeste 15 Sudeste 0 -- -- 70
2019-09-19 08:00:00 13.6 13 Sur 16 Sur 0 -- -- 76
2019-09-19 07:00:00 13.7 10 Sudeste 15 Sur 0 -- -- 77
2019-09-19 06:00:00 13.6 13 Sur 16 Sudeste 0 -- -- 75
2019-09-19 05:00:00 14.1 13 Sur 16 Sur 0 -- -- 72
2019-09-19 04:00:00 14.3 14 Sur 15 Sudeste 0 -- -- 75
2019-09-19 03:00:00 14.7 7 Sudeste 17 Sudeste 0 -- -- 74
2019-09-19 02:00:00 17.8 14 Este 19 Este 0 -- -- 60
2019-09-19 01:00:00 18.3 11 Sudeste 16 Este 0 -- -- 61
2019-09-19 00:00:00 18.1 12 Este 18 Sudeste 0 -- -- 62
2019-09-18 23:00:00 15.5 4 Sudeste 14 Sudeste 0 -- -- 75
2019-09-18 22:00:00 17.4 10 Sudeste 14 Sur 0 -- -- 67
2019-09-18 21:00:00 17 13 Sur 14 Sudeste 0 -- -- 73
2019-09-18 20:00:00 20.2 6 Sur 9 Sur 0 -- -- 66
2019-09-18 19:00:00 21.9 3 Este 11 Nordeste 0 -- -- 56
2019-09-18 18:00:00 24 5 Nordeste 14 Este 0 -- -- 44
2019-09-18 17:00:00 23.3 5 Nordeste 20 Noroeste 0 -- -- 47
2019-09-18 16:00:00 23.2 4 Este 18 Norte 0 -- -- 48
2019-09-18 15:00:00 22.9 7 Nordeste 17 Norte 0 -- -- 49
2019-09-18 14:00:00 22.6 6 Norte 20 Oeste 0 -- -- 50
2019-09-18 13:00:00 22.2 5 Norte 17 Noroeste 0 -- -- 56
2019-09-18 12:00:00 21.7 7 Norte 10 Noroeste 0 -- -- 54
2019-09-18 11:00:00 20 3 Noroeste 8 Norte 0 -- -- 53
2019-09-18 10:00:00 17.9 0 Calma 15 Sudeste 0 -- -- 58
2019-09-18 09:00:00 12.8 13 Sudeste 21 Sur 0 -- -- 76
2019-09-18 08:00:00 11.8 12 Sudeste 20 Sudeste 0 -- -- 78
2019-09-18 07:00:00 11.8 9 Sur 19 Sur 0 -- -- 78
2019-09-18 06:00:00 12.6 15 Sur 19 Sudeste 0 -- -- 73
2019-09-18 05:00:00 11.9 12 Sur 15 Este 0 -- -- 78
2019-09-18 04:00:00 12.5 8 Sudeste 14 Este 0 -- -- 77
2019-09-18 03:00:00 12.6 8 Sudeste 14 Sudeste 0 -- -- 79
2019-09-18 02:00:00 13.3 9 Sudeste 19 Este 0 -- -- 76
2019-09-18 01:00:00 13 6 Sur 16 Sur 0 -- -- 80
2019-09-18 00:00:00 14.9 5 Oeste 16 Sudeste 0 -- -- 72
2019-09-17 23:00:00 15.4 10 Este 23 Nordeste 0 -- -- 67
2019-09-17 22:00:00 17 21 Sur 41 Sudeste 0 -- -- 56
2019-09-17 21:00:00 16.8 29 Sudeste 43 Sudeste 0.2 -- -- 59